createdAt,value
2023-05-14T00:01:24.280Z,7.53
2023-05-14T00:03:52.425Z,7.48
2023-05-14T00:06:20.140Z,7.49
2023-05-14T00:08:48.025Z,7.42
2023-05-14T00:11:15.994Z,7.39
2023-05-14T00:13:44.036Z,7.55
2023-05-14T00:16:12.309Z,7.60
2023-05-14T00:18:40.270Z,7.51
2023-05-14T00:21:07.963Z,7.47
2023-05-14T00:23:35.889Z,7.47
2023-05-14T00:26:03.579Z,7.45
2023-05-14T00:28:31.527Z,7.48
2023-05-14T00:30:59.169Z,7.49
2023-05-14T00:33:27.092Z,7.54
2023-05-14T00:35:54.812Z,7.46
2023-05-14T00:38:24.273Z,7.43
2023-05-14T00:40:52.117Z,7.35
2023-05-14T00:43:21.309Z,7.40
2023-05-14T00:45:51.744Z,7.55
2023-05-14T00:48:21.041Z,7.78
2023-05-14T00:50:50.777Z,7.42
2023-05-14T00:53:22.045Z,7.46
2023-05-14T00:55:50.480Z,7.46
2023-05-14T00:58:19.483Z,7.31
2023-05-14T01:00:47.326Z,7.31
2023-05-14T01:03:15.981Z,7.32
2023-05-14T01:06:14.174Z,7.42
2023-05-14T01:08:57.275Z,7.37
2023-05-14T01:11:41.417Z,7.37
2023-05-14T01:14:27.567Z,7.56
2023-05-14T01:16:59.614Z,7.39
2023-05-14T01:19:41.957Z,7.13
2023-05-14T01:22:10.004Z,7.26
2023-05-14T01:24:38.294Z,7.15
2023-05-14T01:27:30.073Z,7.10
2023-05-14T01:30:08.774Z,6.94
2023-05-14T01:32:37.421Z,7.05
2023-05-14T01:35:07.384Z,7.12
2023-05-14T01:37:36.574Z,7.10
2023-05-14T01:40:06.458Z,7.00
2023-05-14T01:42:34.584Z,6.76
2023-05-14T01:45:02.967Z,6.64
2023-05-14T01:47:31.034Z,6.51
2023-05-14T01:49:59.016Z,6.50
2023-05-14T01:52:26.696Z,6.61
2023-05-14T01:54:54.908Z,6.46
2023-05-14T01:57:22.796Z,6.40
2023-05-14T01:59:51.293Z,6.31
2023-05-14T02:02:19.351Z,6.23
2023-05-14T02:04:47.517Z,6.34
2023-05-14T02:07:15.181Z,6.50
2023-05-14T02:09:43.130Z,6.32
2023-05-14T02:12:11.775Z,6.35
2023-05-14T02:14:39.752Z,6.24
2023-05-14T02:17:07.530Z,6.34
2023-05-14T02:19:35.510Z,6.16
2023-05-14T02:22:03.324Z,6.20
2023-05-14T02:24:31.217Z,6.13
2023-05-14T02:27:01.107Z,5.97
2023-05-14T02:29:29.141Z,6.19
2023-05-14T02:31:57.360Z,6.43
2023-05-14T02:34:25.534Z,6.44
2023-05-14T02:36:53.286Z,6.26
2023-05-14T02:39:21.298Z,6.18
2023-05-14T02:41:49.060Z,6.14
2023-05-14T02:44:18.333Z,6.17
2023-05-14T02:46:46.145Z,6.03
2023-05-14T02:49:14.130Z,5.91
2023-05-14T02:51:41.783Z,6.03
2023-05-14T02:54:09.826Z,6.09
2023-05-14T02:56:37.483Z,6.12
2023-05-14T02:59:05.460Z,6.21
2023-05-14T03:01:33.523Z,6.23
2023-05-14T03:04:02.265Z,6.34
2023-05-14T03:06:29.985Z,6.55
2023-05-14T03:08:57.899Z,6.47
2023-05-14T03:11:25.582Z,6.45
2023-05-14T03:13:53.655Z,6.59
2023-05-14T03:16:21.393Z,6.70
2023-05-14T03:18:49.454Z,6.64
2023-05-14T03:21:17.187Z,6.58
2023-05-14T03:23:45.224Z,6.61
2023-05-14T03:26:12.924Z,6.63
2023-05-14T03:28:41.157Z,7.08
2023-05-14T03:31:08.912Z,7.17
2023-05-14T03:33:38.187Z,7.24
2023-05-14T03:36:06.180Z,7.11
2023-05-14T03:38:34.106Z,7.25
2023-05-14T03:41:01.721Z,7.24
2023-05-14T03:43:29.593Z,7.29
2023-05-14T03:45:57.350Z,7.39
2023-05-14T03:48:25.483Z,7.47
2023-05-14T03:50:53.353Z,7.46
2023-05-14T03:53:21.398Z,7.53
2023-05-14T03:55:49.121Z,7.61
2023-05-14T03:58:17.955Z,7.76
2023-05-14T04:00:46.045Z,7.89
2023-05-14T04:03:14.124Z,8.02
2023-05-14T04:05:41.890Z,8.71
2023-05-14T04:08:09.863Z,9.69
2023-05-14T04:10:37.761Z,9.97
2023-05-14T04:13:06.024Z,10.26
2023-05-14T04:15:39.233Z,10.09
2023-05-14T04:18:07.370Z,11.98
2023-05-14T04:20:35.430Z,11.97
2023-05-14T04:23:03.548Z,11.96
2023-05-14T04:25:31.249Z,11.76
2023-05-14T04:27:59.159Z,14.67
2023-05-14T04:30:27.025Z,16.10
2023-05-14T04:32:55.226Z,17.30
2023-05-14T04:35:24.992Z,18.74
2023-05-14T04:37:53.262Z,17.82
2023-05-14T04:40:22.834Z,18.81
2023-05-14T04:42:50.970Z,18.34
2023-05-14T04:45:18.729Z,19.21
2023-05-14T04:47:47.508Z,18.16
2023-05-14T04:50:15.474Z,17.89
2023-05-14T04:52:43.496Z,18.79
2023-05-14T04:55:11.107Z,18.84
2023-05-14T04:57:38.993Z,17.71
2023-05-14T05:00:07.481Z,16.63
2023-05-14T05:02:35.595Z,16.08
2023-05-14T05:05:04.316Z,15.72
2023-05-14T05:07:32.308Z,15.76
2023-05-14T05:10:00.635Z,17.80
2023-05-14T05:12:30.258Z,19.77
2023-05-14T05:14:58.157Z,19.50
2023-05-14T05:17:26.154Z,19.60
2023-05-14T05:19:53.887Z,18.93
2023-05-14T05:22:21.914Z,17.87
2023-05-14T05:24:50.054Z,17.40
2023-05-14T05:27:18.129Z,17.19
2023-05-14T05:29:46.266Z,17.70
2023-05-14T05:32:14.306Z,17.93
2023-05-14T05:34:42.105Z,17.65
2023-05-14T05:37:12.820Z,17.08
2023-05-14T05:39:40.808Z,17.04
2023-05-14T05:42:08.813Z,17.03
2023-05-14T05:44:36.525Z,17.02
2023-05-14T05:47:04.716Z,17.08
2023-05-14T05:49:32.570Z,17.29
2023-05-14T05:52:00.646Z,17.52
2023-05-14T05:54:28.285Z,18.43
2023-05-14T05:56:56.486Z,19.13
2023-05-14T05:59:24.640Z,19.32
2023-05-14T06:01:52.950Z,19.10
2023-05-14T06:04:20.705Z,19.20
2023-05-14T06:06:48.808Z,19.83
2023-05-14T06:09:16.474Z,19.87
2023-05-14T06:11:44.480Z,20.30
2023-05-14T06:14:12.107Z,20.52
2023-05-14T06:16:40.135Z,20.58
2023-05-14T06:19:08.617Z,20.64
2023-05-14T06:21:36.798Z,20.64
2023-05-14T06:24:04.768Z,20.67
2023-05-14T06:26:33.067Z,20.71
2023-05-14T06:29:01.152Z,20.76
2023-05-14T06:31:29.217Z,21.00
2023-05-14T06:33:56.857Z,21.51
2023-05-14T06:36:24.975Z,22.23
2023-05-14T06:38:52.688Z,22.87
2023-05-14T06:41:21.288Z,23.11
2023-05-14T06:43:49.126Z,23.14
2023-05-14T06:46:17.055Z,23.73
2023-05-14T06:48:44.766Z,24.35
2023-05-14T06:51:13.411Z,24.94
2023-05-14T06:53:41.578Z,25.85
2023-05-14T06:56:09.520Z,26.20
2023-05-14T06:58:37.220Z,26.27
2023-05-14T07:01:05.398Z,26.71
2023-05-14T07:03:33.162Z,27.26
2023-05-14T07:06:01.135Z,27.96
2023-05-14T07:08:28.825Z,28.04
2023-05-14T07:10:57.465Z,29.37
2023-05-14T07:13:28.329Z,30.93
2023-05-14T07:15:56.839Z,32.45
2023-05-14T07:18:24.656Z,33.00
2023-05-14T07:20:52.554Z,34.00
2023-05-14T07:23:20.328Z,34.92
2023-05-14T07:25:48.231Z,35.22
2023-05-14T07:28:15.873Z,35.38
2023-05-14T07:30:43.851Z,35.69
2023-05-14T07:33:11.496Z,35.47
2023-05-14T07:35:39.521Z,35.90
2023-05-14T07:38:07.360Z,35.73
2023-05-14T07:40:35.679Z,35.71
2023-05-14T07:43:03.298Z,35.58
2023-05-14T07:45:31.202Z,36.47
2023-05-14T07:47:59.022Z,37.09
2023-05-14T07:50:27.230Z,37.34
2023-05-14T07:52:55.571Z,37.39
2023-05-14T07:55:23.602Z,37.29
2023-05-14T07:57:51.383Z,36.92
2023-05-14T08:00:19.444Z,36.85
2023-05-14T08:02:49.259Z,36.44
2023-05-14T08:05:18.096Z,36.44
2023-05-14T08:07:45.811Z,35.93
2023-05-14T08:10:13.876Z,35.67
2023-05-14T08:12:42.764Z,36.33
2023-05-14T08:15:11.081Z,36.15
2023-05-14T08:17:38.871Z,36.10
2023-05-14T08:20:07.670Z,34.84
2023-05-14T08:22:35.321Z,34.79
2023-05-14T08:25:03.963Z,35.22
2023-05-14T08:27:32.197Z,34.84
2023-05-14T08:30:00.504Z,34.48
2023-05-14T08:32:28.386Z,34.98
2023-05-14T08:34:56.390Z,35.57
2023-05-14T08:37:24.137Z,36.46
2023-05-14T08:39:52.134Z,35.53
2023-05-14T08:42:24.358Z,35.32
2023-05-14T08:45:04.708Z,35.06
2023-05-14T08:47:32.498Z,35.37
2023-05-14T08:50:08.288Z,35.20
2023-05-14T08:52:37.367Z,34.17
2023-05-14T08:55:06.885Z,34.37
2023-05-14T08:57:35.145Z,33.91
2023-05-14T09:00:13.644Z,33.82
2023-05-14T09:02:44.467Z,33.42
2023-05-14T09:05:13.241Z,33.41
2023-05-14T09:07:41.334Z,34.17
2023-05-14T09:10:10.228Z,33.98
2023-05-14T09:12:38.036Z,33.98
2023-05-14T09:15:06.745Z,33.95
2023-05-14T09:17:34.637Z,33.76
2023-05-14T09:20:03.114Z,33.35
2023-05-14T09:22:33.996Z,33.05
2023-05-14T09:25:07.382Z,32.52
2023-05-14T09:27:35.609Z,32.58
2023-05-14T09:30:11.732Z,32.93
2023-05-14T09:32:40.954Z,32.57
2023-05-14T09:35:18.341Z,33.03
2023-05-14T09:37:51.978Z,33.35
2023-05-14T09:40:22.037Z,32.98
2023-05-14T09:42:50.532Z,33.39
2023-05-14T09:45:18.674Z,32.63
2023-05-14T09:47:46.526Z,31.71
2023-05-14T09:50:14.843Z,31.94
2023-05-14T09:52:43.000Z,32.39
2023-05-14T09:55:11.122Z,31.35
2023-05-14T09:57:38.888Z,31.08
2023-05-14T10:00:08.704Z,31.64
2023-05-14T10:02:38.161Z,31.09
2023-05-14T10:05:08.014Z,30.48
2023-05-14T10:07:46.623Z,28.27
2023-05-14T10:10:19.267Z,28.65
2023-05-14T10:12:58.094Z,29.06
2023-05-14T10:15:37.613Z,28.11
2023-05-14T10:18:12.920Z,27.09
2023-05-14T10:20:42.152Z,26.56
2023-05-14T10:23:09.974Z,26.32
2023-05-14T10:25:38.340Z,25.81
2023-05-14T10:28:06.499Z,25.20
2023-05-14T10:30:34.572Z,25.21
2023-05-14T10:33:09.575Z,25.36
2023-05-14T10:36:00.609Z,24.99
2023-05-14T10:38:29.812Z,24.86
2023-05-14T10:41:11.729Z,24.82
2023-05-14T10:43:41.627Z,24.73
2023-05-14T10:46:11.597Z,24.76
2023-05-14T10:48:43.088Z,24.57
2023-05-14T10:51:12.093Z,24.35
2023-05-14T10:53:42.515Z,24.29
2023-05-14T10:56:12.894Z,24.36
2023-05-14T10:58:45.085Z,24.61
2023-05-14T11:01:13.906Z,24.50
2023-05-14T11:03:46.703Z,24.81
2023-05-14T11:06:16.376Z,24.68
2023-05-14T11:08:46.407Z,24.67
2023-05-14T11:11:14.974Z,24.69
2023-05-14T11:13:44.486Z,24.46
2023-05-14T11:16:23.268Z,24.54
2023-05-14T11:19:03.611Z,24.51
2023-05-14T11:21:32.929Z,24.43
2023-05-14T11:24:01.636Z,24.50
2023-05-14T11:26:29.586Z,24.36
2023-05-14T11:28:57.384Z,24.26
2023-05-14T11:31:26.460Z,24.14
2023-05-14T11:33:54.325Z,23.86
2023-05-14T11:36:22.905Z,23.88
2023-05-14T11:38:52.371Z,23.97
2023-05-14T11:41:22.882Z,23.95
2023-05-14T11:43:50.862Z,24.08
2023-05-14T11:46:19.040Z,23.97
2023-05-14T11:48:46.950Z,23.79
2023-05-14T11:51:14.930Z,23.93
2023-05-14T11:53:42.679Z,24.07
2023-05-14T11:56:11.241Z,24.32
2023-05-14T11:58:38.953Z,24.15
2023-05-14T12:01:06.892Z,24.08
2023-05-14T12:03:35.255Z,24.12
2023-05-14T12:06:08.197Z,23.99
2023-05-14T12:08:37.687Z,23.78
2023-05-14T12:11:05.765Z,23.83
2023-05-14T12:13:33.602Z,23.89
2023-05-14T12:16:02.550Z,24.07
2023-05-14T12:18:32.424Z,24.20
2023-05-14T12:21:04.520Z,24.13
2023-05-14T12:23:33.029Z,23.80
2023-05-14T12:26:06.817Z,23.92
2023-05-14T12:28:38.843Z,23.89
2023-05-14T12:31:06.988Z,23.76
2023-05-14T12:33:34.770Z,23.67
2023-05-14T12:36:14.036Z,23.78
2023-05-14T12:38:49.579Z,24.00
2023-05-14T12:41:18.473Z,23.94
2023-05-14T12:43:49.654Z,24.17
2023-05-14T12:46:17.822Z,24.36
2023-05-14T12:48:46.477Z,24.52
2023-05-14T12:51:14.518Z,24.49
2023-05-14T12:53:42.218Z,24.54
2023-05-14T12:56:10.418Z,24.70
2023-05-14T12:58:38.299Z,24.63
2023-05-14T13:01:06.944Z,24.66
2023-05-14T13:03:34.787Z,24.70
2023-05-14T13:06:02.748Z,24.69
2023-05-14T13:08:30.590Z,24.75
2023-05-14T13:10:58.540Z,24.68
2023-05-14T13:13:26.356Z,24.53
2023-05-14T13:15:54.254Z,24.55
2023-05-14T13:18:21.974Z,24.67
2023-05-14T13:20:49.916Z,24.83
2023-05-14T13:23:17.605Z,24.87
2023-05-14T13:25:47.975Z,25.07
2023-05-14T13:28:16.877Z,25.15
2023-05-14T13:31:07.521Z,25.14
2023-05-14T13:33:36.747Z,24.95
2023-05-14T13:36:05.372Z,24.66
2023-05-14T13:38:33.083Z,24.29
2023-05-14T13:41:04.018Z,24.45
2023-05-14T13:43:35.984Z,24.41
2023-05-14T13:46:06.033Z,24.28
2023-05-14T13:48:34.478Z,24.20
2023-05-14T13:51:02.493Z,24.31
2023-05-14T13:53:30.598Z,24.00
2023-05-14T13:56:00.898Z,23.67
2023-05-14T13:58:28.732Z,23.45
2023-05-14T14:00:57.031Z,23.19
2023-05-14T14:03:25.145Z,23.00
2023-05-14T14:05:53.267Z,22.88
2023-05-14T14:08:23.939Z,22.85
2023-05-14T14:10:55.331Z,22.96
2023-05-14T14:13:23.433Z,23.34
2023-05-14T14:15:51.628Z,23.60
2023-05-14T14:18:19.520Z,23.67
2023-05-14T14:20:47.688Z,23.77
2023-05-14T14:23:15.465Z,23.58
2023-05-14T14:25:43.662Z,23.41
2023-05-14T14:28:11.352Z,23.24
2023-05-14T14:30:39.377Z,23.27
2023-05-14T14:33:07.216Z,23.05
2023-05-14T14:35:36.326Z,23.14
2023-05-14T14:38:04.044Z,23.22
2023-05-14T14:40:34.154Z,23.17
2023-05-14T14:43:02.276Z,23.14
2023-05-14T14:45:30.393Z,23.20
2023-05-14T14:48:27.716Z,23.27
2023-05-14T14:50:55.904Z,23.25
2023-05-14T14:53:24.482Z,23.30
2023-05-14T14:55:53.002Z,23.23
2023-05-14T14:58:21.483Z,23.23
2023-05-14T15:00:52.220Z,23.22
2023-05-14T15:03:20.301Z,23.28
2023-05-14T15:05:48.719Z,23.29
2023-05-14T15:08:16.644Z,23.33
2023-05-14T15:10:45.794Z,23.32
2023-05-14T15:13:13.679Z,23.36
2023-05-14T15:15:41.610Z,23.42
2023-05-14T15:18:09.454Z,23.43
2023-05-14T15:20:37.985Z,23.24
2023-05-14T15:23:06.140Z,23.20
2023-05-14T15:25:34.198Z,23.12
2023-05-14T15:28:01.946Z,23.08
2023-05-14T15:30:30.363Z,23.06
2023-05-14T15:32:58.194Z,23.05
2023-05-14T15:35:26.624Z,23.05
2023-05-14T15:37:57.303Z,23.00
2023-05-14T15:40:26.822Z,22.92
2023-05-14T15:42:54.597Z,22.82
2023-05-14T15:45:22.744Z,22.77
2023-05-14T15:47:50.376Z,22.79
2023-05-14T15:50:18.711Z,22.63
2023-05-14T15:52:46.617Z,22.53
2023-05-14T15:55:14.803Z,22.43
2023-05-14T15:57:42.443Z,22.42
2023-05-14T16:00:11.240Z,22.34
2023-05-14T16:02:40.295Z,22.35
2023-05-14T16:05:08.938Z,22.30
2023-05-14T16:07:37.178Z,22.30
2023-05-14T16:10:06.065Z,22.26
2023-05-14T16:12:33.870Z,22.24
2023-05-14T16:15:02.006Z,22.26
2023-05-14T16:17:31.828Z,22.15
2023-05-14T16:20:01.200Z,22.11
2023-05-14T16:22:32.842Z,21.95
2023-05-14T16:25:03.166Z,21.93
2023-05-14T16:27:31.784Z,22.00
2023-05-14T16:29:59.796Z,21.98
2023-05-14T16:32:27.978Z,21.97
2023-05-14T16:34:56.588Z,22.00
2023-05-14T16:37:24.426Z,22.01
2023-05-14T16:39:52.469Z,21.97
2023-05-14T16:42:20.414Z,21.98
2023-05-14T16:44:48.400Z,21.92
2023-05-14T16:47:16.242Z,21.85
2023-05-14T16:49:44.224Z,21.83
2023-05-14T16:52:11.931Z,21.79
2023-05-14T16:54:40.068Z,21.73
2023-05-14T16:57:07.725Z,21.66
2023-05-14T16:59:36.184Z,21.73
2023-05-14T17:02:03.987Z,21.58
2023-05-14T17:04:33.429Z,21.62
2023-05-14T17:07:01.549Z,21.56
2023-05-14T17:09:29.449Z,21.53
2023-05-14T17:11:57.184Z,21.34
2023-05-14T17:14:25.159Z,21.25
2023-05-14T17:16:53.670Z,21.17
2023-05-14T17:19:21.570Z,21.11
2023-05-14T17:21:49.293Z,21.03
2023-05-14T17:24:17.228Z,20.92
2023-05-14T17:26:44.890Z,20.79
2023-05-14T17:29:12.783Z,20.70
2023-05-14T17:31:40.542Z,20.58
2023-05-14T17:34:08.610Z,20.49
2023-05-14T17:36:36.452Z,20.42
2023-05-14T17:39:04.381Z,20.38
2023-05-14T17:41:32.154Z,20.31
2023-05-14T17:44:00.258Z,20.11
2023-05-14T17:46:28.094Z,19.98
2023-05-14T17:48:56.373Z,19.82
2023-05-14T17:51:23.996Z,19.77
2023-05-14T17:53:52.037Z,19.53
2023-05-14T17:56:20.935Z,19.35
2023-05-14T17:58:49.788Z,19.21
2023-05-14T18:01:17.549Z,19.08
2023-05-14T18:03:45.685Z,19.16
2023-05-14T18:06:13.481Z,18.95
2023-05-14T18:08:41.798Z,18.89
2023-05-14T18:11:10.309Z,18.86
2023-05-14T18:13:38.283Z,18.64
2023-05-14T18:16:06.259Z,18.56
2023-05-14T18:18:34.521Z,18.49
2023-05-14T18:21:02.622Z,18.48
2023-05-14T18:23:31.492Z,18.36
2023-05-14T18:25:59.462Z,18.17
2023-05-14T18:28:27.888Z,18.02
2023-05-14T18:30:55.689Z,17.84
2023-05-14T18:33:23.757Z,17.63
2023-05-14T18:35:51.740Z,17.60
2023-05-14T18:38:19.892Z,17.50
2023-05-14T18:40:47.614Z,17.49
2023-05-14T18:43:16.808Z,17.60
2023-05-14T18:45:48.367Z,17.43
2023-05-14T18:48:16.573Z,17.49
2023-05-14T18:50:44.327Z,17.51
2023-05-14T18:53:12.276Z,17.37
2023-05-14T18:55:39.986Z,17.29
2023-05-14T18:58:08.729Z,17.15
2023-05-14T19:00:36.403Z,17.01
2023-05-14T19:03:04.504Z,16.98
2023-05-14T19:05:32.339Z,16.93
2023-05-14T19:08:01.057Z,16.77
2023-05-14T19:10:28.879Z,16.67
2023-05-14T19:12:57.632Z,16.66
2023-05-14T19:15:25.833Z,16.49
2023-05-14T19:17:54.232Z,16.45
2023-05-14T19:20:21.980Z,16.36
2023-05-14T19:22:50.076Z,16.25
2023-05-14T19:25:17.777Z,16.16
2023-05-14T19:27:47.883Z,16.01
2023-05-14T19:30:15.681Z,15.91
2023-05-14T19:32:43.666Z,15.86
2023-05-14T19:35:11.719Z,15.72
2023-05-14T19:37:39.688Z,15.53
2023-05-14T19:40:07.976Z,15.37
2023-05-14T19:42:35.886Z,15.24
2023-05-14T19:45:04.036Z,15.11
2023-05-14T19:47:32.113Z,14.97
2023-05-14T19:50:00.144Z,14.91
2023-05-14T19:52:28.034Z,14.79
2023-05-14T19:54:55.757Z,14.72
2023-05-14T19:57:23.693Z,14.80
2023-05-14T19:59:51.370Z,14.77
2023-05-14T20:02:21.747Z,14.71
2023-05-14T20:04:50.755Z,14.76
2023-05-14T20:07:18.666Z,14.58
2023-05-14T20:09:46.739Z,14.57
2023-05-14T20:12:14.839Z,14.47
2023-05-14T20:14:42.614Z,14.37
2023-05-14T20:17:10.677Z,14.35
2023-05-14T20:19:38.482Z,14.36
2023-05-14T20:22:06.444Z,14.30
2023-05-14T20:24:34.100Z,14.28
2023-05-14T20:27:02.098Z,14.24
2023-05-14T20:29:29.879Z,14.18
2023-05-14T20:31:57.784Z,14.33
2023-05-14T20:34:25.501Z,14.18
2023-05-14T20:36:53.532Z,14.14
2023-05-14T20:39:21.262Z,14.11
2023-05-14T20:41:49.301Z,14.14
2023-05-14T20:44:18.378Z,14.06
2023-05-14T20:46:47.956Z,14.14
2023-05-14T20:49:15.677Z,14.16
2023-05-14T20:51:43.653Z,14.37
2023-05-14T20:54:11.256Z,14.33
2023-05-14T20:56:39.215Z,14.27
2023-05-14T20:59:06.799Z,14.45
2023-05-14T21:01:34.885Z,14.40
2023-05-14T21:04:02.720Z,14.52
2023-05-14T21:06:30.781Z,14.52
2023-05-14T21:08:58.454Z,14.46
2023-05-14T21:11:26.355Z,14.49
2023-05-14T21:13:54.313Z,14.32
2023-05-14T21:16:22.432Z,14.18
2023-05-14T21:18:50.360Z,14.18
2023-05-14T21:21:18.414Z,14.26
2023-05-14T21:23:46.122Z,14.40
2023-05-14T21:26:14.110Z,14.25
2023-05-14T21:28:41.801Z,14.32
2023-05-14T21:31:09.888Z,14.28
2023-05-14T21:33:37.544Z,14.28
2023-05-14T21:36:05.946Z,14.13
2023-05-14T21:38:34.011Z,14.07
2023-05-14T21:41:02.054Z,13.94
2023-05-14T21:43:29.803Z,13.90
2023-05-14T21:45:57.769Z,13.87
2023-05-14T21:48:25.746Z,13.84
2023-05-14T21:50:53.840Z,13.82
2023-05-14T21:53:21.538Z,13.81
2023-05-14T21:55:50.010Z,13.79
2023-05-14T21:58:19.177Z,13.80
2023-05-14T22:00:47.259Z,13.79
2023-05-14T22:03:14.995Z,13.82
2023-05-14T22:05:43.290Z,13.81
2023-05-14T22:08:11.757Z,13.92
2023-05-14T22:10:39.734Z,13.85
2023-05-14T22:13:07.411Z,13.86
2023-05-14T22:15:35.499Z,13.88
2023-05-14T22:18:03.379Z,13.96
2023-05-14T22:20:31.461Z,14.01
2023-05-14T22:22:59.113Z,14.11
2023-05-14T22:25:27.317Z,14.02
2023-05-14T22:27:55.231Z,14.04
2023-05-14T22:30:23.258Z,14.08
2023-05-14T22:32:51.041Z,13.98
2023-05-14T22:35:18.995Z,14.12
2023-05-14T22:37:46.673Z,14.13
2023-05-14T22:40:15.641Z,14.27
2023-05-14T22:42:43.542Z,14.46
2023-05-14T22:45:11.596Z,14.39
2023-05-14T22:47:39.392Z,14.52
2023-05-14T22:50:11.519Z,14.66
2023-05-14T22:52:40.315Z,14.69
2023-05-14T22:55:08.828Z,14.93
2023-05-14T22:57:36.795Z,14.88
2023-05-14T23:00:07.903Z,15.01
2023-05-14T23:02:35.783Z,15.03
2023-05-14T23:05:04.216Z,15.04
2023-05-14T23:07:32.136Z,14.96
2023-05-14T23:10:00.102Z,14.92
2023-05-14T23:12:27.803Z,14.93
2023-05-14T23:14:55.862Z,15.02
2023-05-14T23:17:23.613Z,14.95
2023-05-14T23:19:52.148Z,15.00
2023-05-14T23:22:20.361Z,15.04
2023-05-14T23:24:48.308Z,15.13
2023-05-14T23:27:16.128Z,15.10
2023-05-14T23:29:44.038Z,15.27
2023-05-14T23:32:11.766Z,15.34
2023-05-14T23:34:39.822Z,15.21
2023-05-14T23:37:07.744Z,15.35
2023-05-14T23:39:35.789Z,15.20
2023-05-14T23:42:03.547Z,15.21
2023-05-14T23:44:31.445Z,15.27
2023-05-14T23:46:59.159Z,15.22
2023-05-14T23:49:27.807Z,15.22
2023-05-14T23:51:55.472Z,15.34
2023-05-14T23:54:23.465Z,15.40
2023-05-14T23:56:52.572Z,15.39
2023-05-14T23:59:20.489Z,15.40
